Time;durP1;ratioP1;P1;durP2;ratioP2;P2;SDS_P1;SDS_P2;PMS_P1;PMS_P2;Temp;Humidity;BMP_temperature;BMP_pressure;BME280_temperature;BME280_humidity;BME280_pressure;Samples;Min_cycle;Max_cycle;Signal;HPM_P1;HPM_P2
2023/05/22 00:01:41;;;;;;;17.40;12.23;;;20.20;1.00;;;;;;5046582;28;20100;-64
2023/05/22 00:04:07;;;;;;;16.42;13.00;;;20.20;1.00;;;;;;5054039;28;20028;-63
2023/05/22 00:06:33;;;;;;;13.25;11.93;;;20.10;1.00;;;;;;5052478;28;20041;-63
2023/05/22 00:08:59;;;;;;;13.63;12.40;;;20.10;1.00;;;;;;5054169;28;20029;-64
2023/05/22 00:11:24;;;;;;;14.93;12.10;;;20.10;1.00;;;;;;5053256;28;20417;-64
2023/05/22 00:13:50;;;;;;;13.75;12.02;;;20.10;1.00;;;;;;5053449;28;20032;-64
2023/05/22 00:16:16;;;;;;;14.05;12.18;;;20.00;1.00;;;;;;5052754;28;20044;-64
2023/05/22 00:18:43;;;;;;;15.85;14.20;;;20.00;1.00;;;;;;5052941;28;20104;-65
2023/05/22 00:21:09;;;;;;;14.07;12.68;;;19.90;1.00;;;;;;5049769;28;20071;-64
2023/05/22 00:23:35;;;;;;;15.48;12.27;;;20.00;1.00;;;;;;5050494;28;20075;-64
2023/05/22 00:26:01;;;;;;;13.35;11.75;;;20.00;1.00;;;;;;5052874;28;20025;-64
2023/05/22 00:28:27;;;;;;;15.10;12.20;;;20.00;1.00;;;;;;5052658;28;20567;-65
2023/05/22 00:30:53;;;;;;;13.80;12.38;;;20.00;1.00;;;;;;5051184;28;20037;-64
2023/05/22 00:33:19;;;;;;;13.25;11.85;;;20.00;1.00;;;;;;5050719;28;20443;-64
2023/05/22 00:35:44;;;;;;;15.07;11.68;;;19.90;1.00;;;;;;5052400;28;20025;-64
2023/05/22 00:38:31;;;;;;;13.85;12.13;;;19.80;1.00;;;;;;5052449;28;20415;-64
2023/05/22 00:40:57;;;;;;;13.90;12.50;;;19.80;1.00;;;;;;5052762;28;20047;-64
2023/05/22 00:43:23;;;;;;;14.30;12.63;;;19.80;1.00;;;;;;5051354;28;20494;-64
2023/05/22 00:45:49;;;;;;;14.80;12.32;;;19.80;1.00;;;;;;5040789;28;20041;-64
2023/05/22 00:48:15;;;;;;;13.93;12.63;;;19.80;1.00;;;;;;5050674;28;20382;-65
2023/05/22 00:50:41;;;;;;;14.02;12.57;;;19.70;1.00;;;;;;5050300;28;20025;-64
2023/05/22 00:53:07;;;;;;;16.85;13.90;;;19.80;1.00;;;;;;5053568;28;20044;-64
2023/05/22 00:55:33;;;;;;;15.35;13.15;;;19.70;1.00;;;;;;5048782;28;20491;-65
2023/05/22 00:58:00;;;;;;;15.80;13.13;;;19.70;1.00;;;;;;5053021;28;20175;-64
2023/05/22 01:00:26;;;;;;;14.45;12.90;;;19.70;1.00;;;;;;5052360;28;20036;-64
2023/05/22 01:02:52;;;;;;;13.65;11.98;;;19.70;1.00;;;;;;5050551;28;20025;-64
2023/05/22 01:05:18;;;;;;;14.70;12.70;;;19.70;1.00;;;;;;5050925;28;20029;-64
2023/05/22 01:07:46;;;;;;;13.82;12.23;;;19.70;1.00;;;;;;5051017;28;20394;-64
2023/05/22 01:10:12;;;;;;;13.55;12.23;;;19.60;1.00;;;;;;5051395;28;20021;-64
2023/05/22 01:13:19;;;;;;;14.68;11.70;;;19.60;1.00;;;;;;5052542;28;20155;-64
2023/05/22 01:15:53;;;;;;;13.32;11.95;;;19.60;1.00;;;;;;5048271;28;20115;-64
2023/05/22 01:18:37;;;;;;;14.70;11.77;;;19.50;1.00;;;;;;5049445;28;20040;-64
2023/05/22 01:21:09;;;;;;;13.05;11.75;;;19.60;1.00;;;;;;5050208;28;20036;-65
2023/05/22 01:23:56;;;;;;;19.80;13.02;;;19.50;1.00;;;;;;5049938;28;20021;-64
2023/05/22 01:26:49;;;;;;;13.65;11.45;;;19.50;1.00;;;;;;5051616;28;20395;-64
2023/05/22 01:29:52;;;;;;;13.95;11.18;;;19.50;1.00;;;;;;5049624;28;20017;-64
2023/05/22 01:32:21;;;;;;;12.57;11.38;;;19.50;1.00;;;;;;5048514;28;20025;-65
2023/05/22 01:34:52;;;;;;;14.15;11.30;;;19.50;1.00;;;;;;5051902;28;20060;-64
2023/05/22 01:37:21;;;;;;;13.55;12.13;;;19.40;1.00;;;;;;5039898;28;20040;-64
2023/05/22 01:39:47;;;;;;;13.10;11.90;;;19.50;1.00;;;;;;5048182;28;20060;-64
2023/05/22 01:42:13;;;;;;;13.75;12.25;;;19.50;1.00;;;;;;5049016;28;20505;-64
2023/05/22 01:44:40;;;;;;;12.52;11.38;;;19.50;1.00;;;;;;5051964;28;20044;-64
2023/05/22 01:47:07;;;;;;;13.13;11.77;;;19.50;1.00;;;;;;5050525;28;20111;-65
2023/05/22 01:49:34;;;;;;;12.48;11.15;;;19.50;1.00;;;;;;5050006;28;20036;-64
2023/05/22 01:52:11;;;;;;;13.25;11.73;;;19.50;1.00;;;;;;5043315;28;20024;-64
2023/05/22 01:54:49;;;;;;;12.95;11.50;;;19.40;1.00;;;;;;5051327;28;20029;-65
2023/05/22 01:57:35;;;;;;;13.27;11.95;;;19.40;1.00;;;;;;5045064;28;20053;-64
2023/05/22 02:00:08;;;;;;;12.52;11.13;;;19.40;1.00;;;;;;5030724;28;20110;-64
2023/05/22 02:02:41;;;;;;;12.05;10.93;;;19.30;1.00;;;;;;5049434;28;20044;-64
2023/05/22 02:05:11;;;;;;;12.73;11.13;;;19.30;1.00;;;;;;5051794;28;20052;-64
2023/05/22 02:07:39;;;;;;;12.68;11.38;;;19.30;1.00;;;;;;5050051;28;20041;-64
2023/05/22 02:10:07;;;;;;;13.10;10.85;;;19.30;1.00;;;;;;5047375;28;20024;-64
2023/05/22 02:12:33;;;;;;;15.05;11.82;;;19.30;1.00;;;;;;5042351;28;20415;-65
2023/05/22 02:14:59;;;;;;;12.60;11.32;;;19.30;1.00;;;;;;5052056;28;20028;-64
2023/05/22 02:17:25;;;;;;;15.20;11.48;;;19.30;1.00;;;;;;5050513;28;20037;-64
2023/05/22 02:19:51;;;;;;;13.57;11.20;;;19.30;1.00;;;;;;5051640;28;20470;-64
2023/05/22 02:22:17;;;;;;;12.52;11.27;;;19.30;1.00;;;;;;5050966;28;20139;-64
2023/05/22 02:24:46;;;;;;;12.93;11.25;;;19.30;1.00;;;;;;5049368;28;20035;-64
2023/05/22 02:27:12;;;;;;;13.10;11.27;;;19.30;1.00;;;;;;5049448;28;20037;-64
2023/05/22 02:29:37;;;;;;;12.75;10.48;;;19.30;1.00;;;;;;5051016;28;20039;-65
2023/05/22 02:32:04;;;;;;;11.68;10.50;;;19.30;1.00;;;;;;5051876;28;20823;-64
2023/05/22 02:34:33;;;;;;;12.02;10.77;;;19.40;1.00;;;;;;5051562;28;20390;-64
2023/05/22 02:37:02;;;;;;;12.00;10.07;;;19.30;1.00;;;;;;5051318;28;20486;-64
2023/05/22 02:39:28;;;;;;;13.40;10.55;;;19.30;1.00;;;;;;5050239;28;20033;-64
2023/05/22 02:41:54;;;;;;;11.45;10.35;;;19.30;1.00;;;;;;5048188;28;21476;-64
2023/05/22 02:44:20;;;;;;;12.05;9.93;;;19.40;1.00;;;;;;5050695;28;20079;-63
2023/05/22 02:46:46;;;;;;;13.48;10.30;;;19.40;1.00;;;;;;5051450;28;20028;-64
2023/05/22 02:49:12;;;;;;;13.18;10.90;;;19.40;1.00;;;;;;5051520;28;20506;-64
2023/05/22 02:51:38;;;;;;;11.45;9.60;;;19.40;1.00;;;;;;5046812;28;20025;-64
2023/05/22 02:54:04;;;;;;;10.23;9.30;;;19.40;1.00;;;;;;5048361;28;20028;-64
2023/05/22 02:56:29;;;;;;;11.18;10.07;;;19.40;1.00;;;;;;5051272;28;20033;-64
2023/05/22 02:58:58;;;;;;;9.82;8.82;;;19.50;1.00;;;;;;5053111;28;20037;-63
2023/05/22 03:01:25;;;;;;;9.93;8.93;;;19.50;1.00;;;;;;5054425;28;20513;-63
2023/05/22 03:03:51;;;;;;;12.88;9.38;;;19.40;1.00;;;;;;5053984;28;20032;-63
2023/05/22 03:06:17;;;;;;;11.25;9.68;;;19.40;1.00;;;;;;5053953;28;20555;-63
2023/05/22 03:08:43;;;;;;;10.30;8.90;;;19.40;1.00;;;;;;5054484;28;20113;-63
2023/05/22 03:11:09;;;;;;;10.88;9.02;;;19.40;1.00;;;;;;5054882;28;20032;-63
2023/05/22 03:13:35;;;;;;;9.82;8.80;;;19.50;1.00;;;;;;5051684;28;20032;-63
2023/05/22 03:16:01;;;;;;;8.63;7.82;;;19.40;1.00;;;;;;5054033;28;20082;-64
2023/05/22 03:18:26;;;;;;;9.48;8.30;;;19.40;1.00;;;;;;5054392;28;20033;-63
2023/05/22 03:20:52;;;;;;;8.65;7.78;;;19.40;1.00;;;;;;5054731;28;20063;-63
2023/05/22 03:23:20;;;;;;;8.20;7.50;;;19.40;1.00;;;;;;5052880;28;20071;-63
2023/05/22 03:25:46;;;;;;;10.82;7.32;;;19.40;1.00;;;;;;5053816;28;20451;-63
2023/05/22 03:28:13;;;;;;;8.20;7.40;;;19.40;1.00;;;;;;5053156;28;20051;-63
2023/05/22 03:30:38;;;;;;;7.88;7.18;;;19.40;1.00;;;;;;5054433;28;20060;-63
2023/05/22 03:33:04;;;;;;;8.50;7.70;;;19.40;1.00;;;;;;5053719;28;20060;-64
2023/05/22 03:35:30;;;;;;;8.32;7.22;;;19.40;1.00;;;;;;5054792;28;20057;-63
2023/05/22 03:37:55;;;;;;;8.57;7.78;;;19.40;1.00;;;;;;5051017;28;20098;-63
2023/05/22 03:40:21;;;;;;;8.95;6.97;;;19.40;1.00;;;;;;5053772;28;20033;-63
2023/05/22 03:42:48;;;;;;;8.57;7.72;;;19.40;1.00;;;;;;5052105;28;20082;-63
2023/05/22 03:45:14;;;;;;;10.48;7.43;;;19.40;1.00;;;;;;5054411;28;20103;-63
2023/05/22 03:47:40;;;;;;;7.72;7.05;;;19.40;1.00;;;;;;5053350;28;20025;-63
2023/05/22 03:50:06;;;;;;;8.38;7.65;;;19.40;1.00;;;;;;5051245;28;20017;-63
2023/05/22 03:52:32;;;;;;;8.00;7.30;;;19.40;1.00;;;;;;5054209;28;20025;-64
2023/05/22 03:54:58;;;;;;;8.63;7.82;;;19.40;1.00;;;;;;5051697;28;20044;-64
2023/05/22 03:57:23;;;;;;;9.45;8.18;;;19.40;1.00;;;;;;5054437;28;20021;-64
2023/05/22 03:59:49;;;;;;;8.85;8.02;;;19.40;1.00;;;;;;5051644;28;20021;-64
2023/05/22 04:02:16;;;;;;;10.32;9.13;;;19.40;1.00;;;;;;5052719;28;20033;-64
2023/05/22 04:04:44;;;;;;;9.40;8.50;;;19.40;1.00;;;;;;5053826;28;20031;-63
2023/05/22 04:07:12;;;;;;;10.50;9.50;;;19.30;1.00;;;;;;5053893;28;20078;-64
2023/05/22 04:09:39;;;;;;;10.23;9.05;;;19.30;1.00;;;;;;5051438;28;20029;-63
2023/05/22 04:12:05;;;;;;;10.18;8.70;;;19.40;1.00;;;;;;5054190;28;20117;-63
2023/05/22 04:14:31;;;;;;;9.80;8.77;;;19.30;1.00;;;;;;5051650;28;20013;-63
2023/05/22 04:16:58;;;;;;;9.50;8.48;;;19.40;1.00;;;;;;5050275;28;20445;-64
2023/05/22 04:19:26;;;;;;;9.10;8.23;;;19.30;1.00;;;;;;5049941;28;20028;-64
2023/05/22 04:21:53;;;;;;;9.57;8.68;;;19.40;1.00;;;;;;5048445;28;20043;-63
2023/05/22 04:24:21;;;;;;;8.65;7.95;;;19.30;1.00;;;;;;5048783;28;20053;-63
2023/05/22 04:26:48;;;;;;;9.35;8.45;;;19.30;1.00;;;;;;5052798;28;20040;-63
2023/05/22 04:29:13;;;;;;;9.77;8.13;;;19.40;1.00;;;;;;5051078;28;20051;-64
2023/05/22 04:31:39;;;;;;;8.43;7.68;;;19.40;1.00;;;;;;5052444;28;20117;-63
2023/05/22 04:34:06;;;;;;;9.32;8.50;;;19.40;1.00;;;;;;5053117;28;20107;-64
2023/05/22 04:36:31;;;;;;;9.18;8.38;;;19.30;1.00;;;;;;5049198;28;20096;-63
2023/05/22 04:38:59;;;;;;;8.52;7.38;;;19.40;1.00;;;;;;5048374;28;20080;-63
2023/05/22 04:41:25;;;;;;;9.18;8.27;;;19.40;1.00;;;;;;5053304;28;20482;-63
2023/05/22 04:43:52;;;;;;;8.73;7.93;;;19.30;1.00;;;;;;5056068;28;20459;-64
2023/05/22 04:46:18;;;;;;;9.73;8.27;;;19.30;1.00;;;;;;5051323;28;20056;-64
2023/05/22 04:48:44;;;;;;;10.40;7.60;;;19.30;1.00;;;;;;5051389;28;20055;-64
2023/05/22 04:51:10;;;;;;;9.50;8.02;;;19.30;1.00;;;;;;5051335;28;20029;-64
2023/05/22 04:53:37;;;;;;;9.32;8.07;;;19.40;1.00;;;;;;5044373;28;20096;-63
2023/05/22 04:56:03;;;;;;;8.18;7.38;;;19.30;1.00;;;;;;5051813;28;20048;-63
2023/05/22 04:58:29;;;;;;;8.32;7.60;;;19.30;1.00;;;;;;5052519;28;20028;-63
2023/05/22 05:00:57;;;;;;;8.80;8.00;;;19.40;1.00;;;;;;5049639;28;20411;-64
2023/05/22 05:03:27;;;;;;;8.52;7.70;;;19.40;1.00;;;;;;5052962;28;20031;-63
2023/05/22 05:05:53;;;;;;;11.43;8.45;;;19.40;1.00;;;;;;5052617;28;20033;-64
2023/05/22 05:08:18;;;;;;;9.38;8.23;;;19.40;1.00;;;;;;5050846;28;20371;-63
2023/05/22 05:10:44;;;;;;;10.18;8.20;;;19.40;1.00;;;;;;5051731;28;20028;-63
2023/05/22 05:13:10;;;;;;;8.50;6.88;;;19.40;1.00;;;;;;5052767;28;20443;-64
2023/05/22 05:15:35;;;;;;;8.15;7.15;;;19.50;1.00;;;;;;5051914;28;20027;-64
2023/05/22 05:18:01;;;;;;;8.95;8.05;;;19.50;1.00;;;;;;5051968;28;20063;-63
2023/05/22 05:20:26;;;;;;;8.75;7.95;;;19.60;1.00;;;;;;5050580;28;20124;-63
2023/05/22 05:22:52;;;;;;;9.70;7.55;;;19.60;1.00;;;;;;5049859;28;20064;-64
2023/05/22 05:25:18;;;;;;;8.35;7.55;;;19.70;1.00;;;;;;5050559;28;20021;-63
2023/05/22 05:27:43;;;;;;;7.90;7.20;;;19.60;1.00;;;;;;5052558;28;20562;-63
2023/05/22 05:30:09;;;;;;;8.70;7.47;;;19.60;1.00;;;;;;5045315;28;20021;-63
2023/05/22 05:32:35;;;;;;;7.90;7.10;;;19.60;1.00;;;;;;5052304;28;20029;-64
2023/05/22 05:35:01;;;;;;;7.57;6.88;;;19.60;1.00;;;;;;5050338;28;20394;-63
2023/05/22 05:37:27;;;;;;;8.00;7.18;;;19.50;1.00;;;;;;5050403;28;20106;-63
2023/05/22 05:39:53;;;;;;;7.80;6.85;;;19.50;1.00;;;;;;5051111;28;20360;-63
2023/05/22 05:42:18;;;;;;;7.40;6.43;;;19.50;1.00;;;;;;5050611;28;20033;-64
2023/05/22 05:44:44;;;;;;;8.18;7.38;;;19.60;1.00;;;;;;5050874;28;20021;-63
2023/05/22 05:47:10;;;;;;;8.38;7.57;;;19.60;1.00;;;;;;5050771;28;20470;-63
2023/05/22 05:49:36;;;;;;;8.00;7.30;;;19.60;1.00;;;;;;5052162;28;20028;-63
2023/05/22 05:52:01;;;;;;;7.43;6.75;;;19.60;1.00;;;;;;5051955;28;20029;-64
2023/05/22 05:54:27;;;;;;;9.73;7.13;;;19.70;1.00;;;;;;5052253;28;20114;-63
2023/05/22 05:56:53;;;;;;;8.70;7.78;;;19.70;1.00;;;;;;5050093;28;20368;-63
2023/05/22 05:59:19;;;;;;;8.55;7.68;;;19.70;1.00;;;;;;5050109;28;20470;-64
2023/05/22 06:01:46;;;;;;;8.68;7.70;;;19.70;1.00;;;;;;5048775;28;20049;-64
2023/05/22 06:04:12;;;;;;;10.88;7.60;;;19.80;1.00;;;;;;5051974;28;20079;-64
2023/05/22 06:06:38;;;;;;;8.93;6.97;;;19.90;1.00;;;;;;5052136;28;20086;-63
2023/05/22 06:09:07;;;;;;;8.75;7.05;;;19.90;1.00;;;;;;5049483;28;20085;-63
2023/05/22 06:11:33;;;;;;;7.22;6.57;;;20.00;1.00;;;;;;5050595;28;20037;-64
2023/05/22 06:14:00;;;;;;;8.63;7.75;;;20.00;1.00;;;;;;5051888;28;20052;-64
2023/05/22 06:16:25;;;;;;;7.93;7.25;;;20.10;1.00;;;;;;5050495;28;20032;-64
2023/05/22 06:18:51;;;;;;;8.73;7.35;;;20.10;1.00;;;;;;5052930;28;20503;-64
2023/05/22 06:21:20;;;;;;;7.93;7.10;;;20.20;1.00;;;;;;5049571;28;20401;-63
2023/05/22 06:23:47;;;;;;;8.68;7.57;;;20.20;1.00;;;;;;5030594;28;20522;-63
2023/05/22 06:26:12;;;;;;;8.35;7.13;;;20.20;1.00;;;;;;5051582;28;20025;-63
2023/05/22 06:28:38;;;;;;;7.90;7.10;;;20.30;1.00;;;;;;5044161;28;20036;-63
2023/05/22 06:31:04;;;;;;;7.55;6.85;;;20.30;1.00;;;;;;5048333;28;20041;-64
2023/05/22 06:33:30;;;;;;;8.30;6.60;;;20.30;1.00;;;;;;5054730;28;20045;-63
2023/05/22 06:35:57;;;;;;;7.72;6.72;;;20.40;1.00;;;;;;5055582;28;20029;-64
2023/05/22 06:38:22;;;;;;;9.13;6.53;;;20.40;1.00;;;;;;5049013;28;20052;-64
2023/05/22 06:40:48;;;;;;;6.95;6.32;;;20.50;1.00;;;;;;5050129;28;20029;-63
2023/05/22 06:43:14;;;;;;;9.07;6.60;;;20.50;1.00;;;;;;5055527;28;20025;-64
2023/05/22 06:45:39;;;;;;;6.95;6.25;;;20.50;1.00;;;;;;5055443;28;20013;-64
2023/05/22 06:48:05;;;;;;;7.90;6.60;;;20.50;1.00;;;;;;5054699;28;20087;-64
2023/05/22 06:50:31;;;;;;;8.43;6.45;;;20.50;1.00;;;;;;5054685;28;20021;-63
2023/05/22 06:52:56;;;;;;;7.32;6.63;;;20.50;1.00;;;;;;5053393;28;20033;-64
2023/05/22 06:55:22;;;;;;;8.25;7.38;;;20.50;1.00;;;;;;5054153;28;20071;-64
2023/05/22 06:57:48;;;;;;;7.60;6.82;;;20.50;1.00;;;;;;5055538;28;20040;-64
2023/05/22 07:00:15;;;;;;;8.23;6.22;;;20.60;1.00;;;;;;5054112;28;20036;-64
2023/05/22 07:02:40;;;;;;;7.97;6.38;;;20.70;1.00;;;;;;5050972;28;20033;-63
2023/05/22 07:05:06;;;;;;;6.95;6.25;;;20.70;1.00;;;;;;5054868;28;20032;-64
2023/05/22 07:07:32;;;;;;;7.03;6.07;;;20.80;1.00;;;;;;5051159;28;20142;-64
2023/05/22 07:09:58;;;;;;;7.80;6.82;;;20.80;1.00;;;;;;5053434;28;20083;-63
2023/05/22 07:12:25;;;;;;;10.32;6.70;;;20.90;1.00;;;;;;5054891;28;20029;-63
2023/05/22 07:14:53;;;;;;;8.48;7.35;;;21.00;1.00;;;;;;5054294;28;20099;-63
2023/05/22 07:17:20;;;;;;;7.43;6.68;;;21.10;1.00;;;;;;5053360;28;20037;-63
2023/05/22 07:19:47;;;;;;;10.95;7.40;;;21.10;1.00;;;;;;5053583;28;20032;-63
2023/05/22 07:22:13;;;;;;;7.70;7.00;;;21.10;1.00;;;;;;5052846;28;20041;-64
2023/05/22 07:24:38;;;;;;;9.27;7.10;;;21.20;1.00;;;;;;5053812;28;20095;-64
2023/05/22 07:27:05;;;;;;;9.82;7.03;;;21.10;1.00;;;;;;5054963;28;20119;-64
2023/05/22 07:29:30;;;;;;;7.30;6.60;;;21.10;1.00;;;;;;5054361;28;20025;-63
2023/05/22 07:31:56;;;;;;;9.68;6.90;;;21.10;1.00;;;;;;5053657;28;20029;-64
2023/05/22 07:34:22;;;;;;;7.85;7.05;;;21.10;1.00;;;;;;5053762;28;20108;-63
2023/05/22 07:36:48;;;;;;;8.38;6.60;;;21.10;1.00;;;;;;5049718;28;20503;-63
2023/05/22 07:39:14;;;;;;;8.48;6.40;;;21.10;1.00;;;;;;5055196;28;20132;-64
2023/05/22 07:41:40;;;;;;;10.95;6.72;;;21.20;1.00;;;;;;5052515;28;20480;-63
2023/05/22 07:44:05;;;;;;;8.23;7.45;;;21.10;1.00;;;;;;5053526;28;20090;-65
2023/05/22 07:46:34;;;;;;;9.68;8.00;;;21.10;1.00;;;;;;5054388;28;20111;-64
2023/05/22 07:48:59;;;;;;;8.52;6.45;;;21.10;1.00;;;;;;5052458;28;20103;-64
2023/05/22 07:51:25;;;;;;;7.45;6.45;;;21.10;1.00;;;;;;5053695;28;20155;-64
2023/05/22 07:53:51;;;;;;;7.50;6.80;;;21.10;1.00;;;;;;5053246;28;20025;-64
2023/05/22 07:56:17;;;;;;;10.32;7.28;;;21.10;1.00;;;;;;5053287;28;20029;-64
2023/05/22 07:58:43;;;;;;;8.27;6.85;;;21.10;1.00;;;;;;5053935;28;20031;-64
2023/05/22 08:01:08;;;;;;;10.18;6.85;;;21.10;1.00;;;;;;5053562;28;20043;-64
2023/05/22 08:03:34;;;;;;;8.43;6.80;;;21.10;1.00;;;;;;5052980;28;20378;-65
2023/05/22 08:06:00;;;;;;;7.70;6.90;;;21.10;1.00;;;;;;5052759;28;20022;-64
2023/05/22 08:08:26;;;;;;;9.93;7.05;;;21.10;1.00;;;;;;5052696;28;20040;-63
2023/05/22 08:10:52;;;;;;;6.93;6.20;;;21.10;1.00;;;;;;5051840;28;20470;-64
2023/05/22 08:13:18;;;;;;;8.68;6.75;;;21.20;1.00;;;;;;5053162;28;20013;-63
2023/05/22 08:15:44;;;;;;;7.63;5.90;;;21.20;1.00;;;;;;5052394;28;20048;-64
2023/05/22 08:18:10;;;;;;;6.93;6.22;;;21.20;1.00;;;;;;5053938;28;20025;-63
2023/05/22 08:20:37;;;;;;;6.30;5.70;;;21.30;1.00;;;;;;5052941;28;20028;-64
2023/05/22 08:23:02;;;;;;;10.10;6.13;;;21.30;1.00;;;;;;5050354;28;20048;-63
2023/05/22 08:25:28;;;;;;;9.35;6.63;;;21.30;1.00;;;;;;5053163;28;20021;-65
2023/05/22 08:27:54;;;;;;;8.88;6.57;;;21.30;1.00;;;;;;5049365;28;20025;-65
2023/05/22 08:30:23;;;;;;;8.18;6.53;;;21.40;1.00;;;;;;5050588;28;20025;-65
2023/05/22 08:32:48;;;;;;;8.90;6.50;;;21.40;1.00;;;;;;5047851;28;20517;-64
2023/05/22 08:35:14;;;;;;;8.82;6.50;;;21.40;1.00;;;;;;5053303;28;20025;-64
2023/05/22 08:37:40;;;;;;;9.00;6.57;;;21.40;1.00;;;;;;5053500;28;20452;-64
2023/05/22 08:40:12;;;;;;;8.70;6.72;;;21.40;1.00;;;;;;5053289;28;20024;-64
2023/05/22 08:42:37;;;;;;;7.97;7.18;;;21.40;1.00;;;;;;5052176;28;20123;-64
2023/05/22 08:45:05;;;;;;;8.48;6.60;;;21.40;1.00;;;;;;5054309;28;20100;-63
2023/05/22 08:47:34;;;;;;;12.75;7.00;;;21.40;1.00;;;;;;5048695;28;20040;-64
2023/05/22 08:50:00;;;;;;;9.00;7.10;;;21.40;1.00;;;;;;5051678;28;20032;-63
2023/05/22 08:52:36;;;;;;;8.10;6.93;;;21.40;1.00;;;;;;5049433;28;20106;-64
2023/05/22 08:55:06;;;;;;;11.30;7.43;;;21.50;1.00;;;;;;5050624;28;20048;-63
2023/05/22 08:57:33;;;;;;;8.18;6.65;;;21.60;1.00;;;;;;5051619;28;20719;-64
2023/05/22 08:59:58;;;;;;;9.48;7.28;;;21.70;1.00;;;;;;5053020;28;20021;-64
2023/05/22 09:02:24;;;;;;;9.90;7.07;;;21.70;1.00;;;;;;5052333;28;20033;-64
2023/05/22 09:04:51;;;;;;;8.93;6.88;;;21.70;1.00;;;;;;5051147;28;20113;-63
2023/05/22 09:07:17;;;;;;;9.35;7.55;;;21.80;1.00;;;;;;5045674;28;20053;-64
2023/05/22 09:09:43;;;;;;;8.43;7.63;;;21.70;1.00;;;;;;5039608;28;20094;-63
2023/05/22 09:12:09;;;;;;;10.73;8.30;;;21.80;1.00;;;;;;5052964;28;20031;-64
2023/05/22 09:14:39;;;;;;;8.60;7.68;;;21.80;1.00;;;;;;5052346;28;20025;-64
2023/05/22 09:17:05;;;;;;;11.93;10.20;;;21.80;1.00;;;;;;5050453;28;20025;-64
2023/05/22 09:19:31;;;;;;;10.35;9.15;;;21.90;1.00;;;;;;5050071;28;20179;-63
2023/05/22 09:22:04;;;;;;;11.15;10.05;;;22.00;1.00;;;;;;5052844;28;20112;-63
2023/05/22 09:24:30;;;;;;;12.82;9.85;;;22.00;1.00;;;;;;5051297;28;20033;-64
2023/05/22 09:26:56;;;;;;;11.82;9.52;;;22.10;1.00;;;;;;5049858;28;20028;-63
2023/05/22 09:29:21;;;;;;;14.90;11.23;;;22.20;1.00;;;;;;5051320;28;20441;-63
2023/05/22 09:31:47;;;;;;;10.35;9.35;;;22.30;1.00;;;;;;5050261;28;20060;-63
2023/05/22 09:34:13;;;;;;;10.45;9.50;;;22.50;1.00;;;;;;5049683;28;20089;-63
2023/05/22 09:36:40;;;;;;;11.45;10.45;;;22.60;1.00;;;;;;5051333;28;20451;-64
2023/05/22 09:39:06;;;;;;;13.60;11.23;;;22.70;1.00;;;;;;5048523;28;20069;-63
2023/05/22 09:41:38;;;;;;;11.00;9.88;;;22.70;1.00;;;;;;5049370;28;20073;-63
2023/05/22 09:44:14;;;;;;;12.20;10.90;;;22.70;1.00;;;;;;5052480;28;20387;-64
2023/05/22 09:46:43;;;;;;;13.23;11.35;;;22.80;1.00;;;;;;5047643;28;20052;-63
2023/05/22 09:49:09;;;;;;;11.52;10.48;;;22.90;1.00;;;;;;5052173;28;20351;-63
2023/05/22 09:51:39;;;;;;;12.20;10.90;;;22.90;1.00;;;;;;5062048;28;20403;-63
2023/05/22 09:54:08;;;;;;;11.90;10.60;;;23.00;1.00;;;;;;5051320;28;20040;-63
2023/05/22 09:56:35;;;;;;;11.98;10.82;;;23.00;1.00;;;;;;5051232;28;20033;-64
2023/05/22 09:59:04;;;;;;;13.55;10.77;;;23.00;1.00;;;;;;5051123;28;20047;-65
2023/05/22 10:01:32;;;;;;;11.95;10.75;;;23.10;1.00;;;;;;5050483;28;20083;-64
2023/05/22 10:03:59;;;;;;;11.98;10.82;;;23.20;1.00;;;;;;5051705;28;20462;-64
2023/05/22 10:06:26;;;;;;;11.35;9.45;;;23.30;1.00;;;;;;5050118;28;20037;-64
2023/05/22 10:09:00;;;;;;;15.38;10.00;;;23.40;1.00;;;;;;5037808;28;20478;-64
2023/05/22 10:11:29;;;;;;;11.20;10.07;;;23.50;1.00;;;;;;5049220;28;20518;-64
2023/05/22 10:13:57;;;;;;;11.50;10.05;;;23.50;1.00;;;;;;5052069;28;20028;-64
2023/05/22 10:16:24;;;;;;;16.40;9.45;;;23.50;1.00;;;;;;5051584;28;20080;-64
2023/05/22 10:18:52;;;;;;;12.55;10.70;;;23.60;1.00;;;;;;5051316;28;20463;-64
2023/05/22 10:21:18;;;;;;;11.45;9.43;;;23.70;1.00;;;;;;5048923;28;20033;-64
2023/05/22 10:23:44;;;;;;;10.55;9.55;;;23.80;1.00;;;;;;5050385;28;20040;-64
2023/05/22 10:26:10;;;;;;;12.82;11.52;;;23.90;1.00;;;;;;5050414;28;20120;-64
2023/05/22 10:28:54;;;;;;;15.88;10.63;;;23.90;1.00;;;;;;5051644;28;20160;-64
2023/05/22 10:31:31;;;;;;;12.80;11.18;;;24.10;1.00;;;;;;5050273;28;20078;-64
2023/05/22 10:34:01;;;;;;;10.75;9.75;;;24.10;1.00;;;;;;5050682;28;20017;-64
2023/05/22 10:37:07;;;;;;;14.10;11.88;;;24.10;1.00;;;;;;5051801;28;20415;-64
2023/05/22 10:39:33;;;;;;;12.75;9.90;;;24.30;1.00;;;;;;5047568;28;20261;-64
2023/05/22 10:41:58;;;;;;;8.98;8.07;;;24.30;1.00;;;;;;5048384;28;20129;-64
2023/05/22 10:44:24;;;;;;;11.00;10.00;;;24.40;1.00;;;;;;5050053;28;20029;-65
2023/05/22 10:46:50;;;;;;;11.02;9.98;;;24.30;1.00;;;;;;5051369;28;20017;-64
2023/05/22 10:49:22;;;;;;;10.63;9.32;;;24.30;1.00;;;;;;5050444;28;20017;-63
2023/05/22 10:51:54;;;;;;;8.55;7.82;;;24.40;1.00;;;;;;5047733;28;20028;-64
2023/05/22 10:54:42;;;;;;;10.57;8.20;;;24.40;1.00;;;;;;5050439;28;20056;-64
2023/05/22 10:57:16;;;;;;;8.45;7.68;;;24.50;1.00;;;;;;5048606;28;20074;-64
2023/05/22 10:59:42;;;;;;;7.10;6.50;;;24.50;1.00;;;;;;5049064;28;20048;-64
2023/05/22 11:02:20;;;;;;;10.00;7.15;;;24.50;1.00;;;;;;5050620;28;20041;-64
2023/05/22 11:04:45;;;;;;;9.93;8.00;;;24.60;1.00;;;;;;5050299;28;20028;-64
2023/05/22 11:07:13;;;;;;;11.70;8.10;;;24.70;1.00;;;;;;5048639;28;20029;-64
2023/05/22 11:09:52;;;;;;;7.50;6.70;;;24.80;1.00;;;;;;5051160;28;20511;-64
2023/05/22 11:12:29;;;;;;;6.78;6.18;;;25.00;1.00;;;;;;5051173;28;20135;-64
2023/05/22 11:14:55;;;;;;;7.90;6.43;;;25.00;1.00;;;;;;5048391;28;20032;-64
2023/05/22 11:17:26;;;;;;;8.57;6.68;;;25.10;1.00;;;;;;5050093;28;20029;-64
2023/05/22 11:20:18;;;;;;;6.88;6.05;;;25.20;1.00;;;;;;5054545;28;20055;-64
2023/05/22 11:22:57;;;;;;;8.05;6.50;;;25.40;1.00;;;;;;5053981;28;20044;-64
2023/05/22 11:25:23;;;;;;;8.98;6.60;;;25.50;1.00;;;;;;5051725;28;20056;-63
2023/05/22 11:27:49;;;;;;;8.73;6.50;;;25.80;1.00;;;;;;5054575;28;20052;-64
2023/05/22 11:30:15;;;;;;;9.10;6.85;;;26.10;1.00;;;;;;5053691;28;20474;-64
2023/05/22 11:32:44;;;;;;;7.22;6.55;;;26.40;1.00;;;;;;5051035;28;20492;-65
2023/05/22 11:35:27;;;;;;;10.13;7.00;;;26.70;1.00;;;;;;5053812;28;20478;-65
2023/05/22 11:37:54;;;;;;;9.90;6.28;;;27.00;99.90;;;;;;5052685;28;20053;-64
2023/05/22 11:40:23;;;;;;;9.80;8.90;;;27.40;99.90;;;;;;5053837;28;20032;-64
2023/05/22 11:42:49;;;;;;;8.25;7.35;;;27.90;99.90;;;;;;5052058;28;20037;-64
2023/05/22 11:45:16;;;;;;;8.13;6.95;;;28.20;99.90;;;;;;5051572;28;20052;-64
2023/05/22 11:47:42;;;;;;;8.43;7.72;;;29.00;99.90;;;;;;5045596;28;20053;-65
2023/05/22 11:50:09;;;;;;;7.68;6.88;;;30.10;99.90;;;;;;5051458;28;21364;-65
2023/05/22 11:52:37;;;;;;;8.32;7.65;;;31.30;99.90;;;;;;5045939;28;20036;-65
2023/05/22 11:55:07;;;;;;;7.22;6.45;;;32.00;99.90;;;;;;5052175;28;20032;-64
2023/05/22 11:57:37;;;;;;;8.40;7.60;;;32.40;99.90;;;;;;5053452;28;20029;-65
2023/05/22 12:00:05;;;;;;;8.18;7.45;;;32.90;99.90;;;;;;5051632;28;20098;-65
2023/05/22 12:02:31;;;;;;;7.50;6.80;;;31.90;99.90;;;;;;5051550;28;20039;-64
2023/05/22 12:04:57;;;;;;;9.25;7.57;;;30.80;99.90;;;;;;5053362;28;20575;-64
2023/05/22 12:07:25;;;;;;;8.05;7.25;;;30.20;99.90;;;;;;5045716;28;20029;-64
2023/05/22 12:09:51;;;;;;;7.82;7.05;;;31.70;99.90;;;;;;5054408;28;20025;-64
2023/05/22 12:12:17;;;;;;;7.75;7.15;;;32.30;99.90;;;;;;5053887;28;20102;-65
2023/05/22 12:14:44;;;;;;;12.15;7.43;;;33.60;99.90;;;;;;5052301;28;20036;-65
2023/05/22 12:17:13;;;;;;;8.48;7.57;;;31.50;99.90;;;;;;5052412;28;20079;-65
2023/05/22 12:19:40;;;;;;;8.38;6.72;;;34.40;99.90;;;;;;5053529;28;20031;-65
2023/05/22 12:22:07;;;;;;;8.70;6.57;;;34.30;99.90;;;;;;5053931;28;20045;-65
2023/05/22 12:24:45;;;;;;;9.63;7.70;;;35.60;99.90;;;;;;5052173;28;20036;-66
2023/05/22 12:27:12;;;;;;;8.65;7.82;;;35.80;99.90;;;;;;5053294;28;20509;-65
2023/05/22 12:29:38;;;;;;;7.55;6.95;;;35.30;99.90;;;;;;5051748;28;20364;-65
2023/05/22 12:32:07;;;;;;;7.55;6.93;;;36.90;99.90;;;;;;5053378;28;20032;-64
2023/05/22 12:34:35;;;;;;;7.25;6.68;;;37.00;99.90;;;;;;5053511;28;20032;-65
2023/05/22 12:37:01;;;;;;;8.25;7.30;;;35.50;99.90;;;;;;5053554;28;20054;-65
2023/05/22 12:39:28;;;;;;;7.30;6.57;;;34.60;99.90;;;;;;5049146;28;20119;-65
2023/05/22 12:41:54;;;;;;;7.55;6.85;;;33.70;99.90;;;;;;5048916;28;20086;-65
2023/05/22 12:44:19;;;;;;;7.82;6.97;;;33.50;99.90;;;;;;5051280;28;20017;-65
2023/05/22 12:46:45;;;;;;;7.35;6.72;;;32.60;99.90;;;;;;5052239;28;20075;-65
2023/05/22 12:49:11;;;;;;;8.30;7.57;;;31.90;99.90;;;;;;5053331;28;20029;-65
2023/05/22 12:51:37;;;;;;;8.95;6.82;;;31.70;99.90;;;;;;5048423;28;20395;-65